sensor_id;sensor_type;location;lat;lon;timestamp;P1;durP1;ratioP1;P2;durP2;ratioP2
8540;SDS011;4308;51.294;6.590;2023-08-31T00:01:26;6.90;;;4.67;;
8540;SDS011;4308;51.294;6.590;2023-08-31T00:03:53;6.10;;;4.20;;
8540;SDS011;4308;51.294;6.590;2023-08-31T00:06:21;7.37;;;4.20;;
8540;SDS011;4308;51.294;6.590;2023-08-31T00:08:49;8.53;;;4.77;;
8540;SDS011;4308;51.294;6.590;2023-08-31T00:11:16;8.93;;;3.93;;
8540;SDS011;4308;51.294;6.590;2023-08-31T00:13:44;7.33;;;4.47;;
8540;SDS011;4308;51.294;6.590;2023-08-31T00:16:11;8.97;;;4.80;;
8540;SDS011;4308;51.294;6.590;2023-08-31T00:18:40;8.20;;;4.20;;
8540;SDS011;4308;51.294;6.590;2023-08-31T00:21:08;6.97;;;4.20;;
8540;SDS011;4308;51.294;6.590;2023-08-31T00:23:37;9.83;;;4.67;;
8540;SDS011;4308;51.294;6.590;2023-08-31T00:26:04;9.80;;;4.13;;
8540;SDS011;4308;51.294;6.590;2023-08-31T00:28:32;11.00;;;4.83;;
8540;SDS011;4308;51.294;6.590;2023-08-31T00:31:00;7.67;;;4.70;;
8540;SDS011;4308;51.294;6.590;2023-08-31T00:33:28;10.77;;;4.93;;
8540;SDS011;4308;51.294;6.590;2023-08-31T00:35:56;8.53;;;4.77;;
8540;SDS011;4308;51.294;6.590;2023-08-31T00:38:23;10.93;;;4.93;;
8540;SDS011;4308;51.294;6.590;2023-08-31T00:40:51;6.57;;;4.60;;
8540;SDS011;4308;51.294;6.590;2023-08-31T00:43:19;7.07;;;4.60;;
8540;SDS011;4308;51.294;6.590;2023-08-31T00:45:50;8.63;;;5.10;;
8540;SDS011;4308;51.294;6.590;2023-08-31T00:48:18;11.07;;;4.90;;
8540;SDS011;4308;51.294;6.590;2023-08-31T00:50:46;7.93;;;5.10;;
8540;SDS011;4308;51.294;6.590;2023-08-31T00:53:14;10.37;;;5.20;;
8540;SDS011;4308;51.294;6.590;2023-08-31T00:55:45;7.53;;;5.27;;
8540;SDS011;4308;51.294;6.590;2023-08-31T00:58:13;7.80;;;5.27;;
8540;SDS011;4308;51.294;6.590;2023-08-31T01:06:10;6.93;;;4.73;;
8540;SDS011;4308;51.294;6.590;2023-08-31T01:08:59;9.97;;;4.53;;
8540;SDS011;4308;51.294;6.590;2023-08-31T01:11:34;6.63;;;4.57;;
8540;SDS011;4308;51.294;6.590;2023-08-31T01:14:23;11.47;;;4.80;;
8540;SDS011;4308;51.294;6.590;2023-08-31T01:16:50;8.37;;;4.73;;
8540;SDS011;4308;51.294;6.590;2023-08-31T01:22:07;11.37;;;5.27;;
8540;SDS011;4308;51.294;6.590;2023-08-31T01:24:37;8.20;;;5.33;;
8540;SDS011;4308;51.294;6.590;2023-08-31T01:27:06;9.27;;;5.20;;
8540;SDS011;4308;51.294;6.590;2023-08-31T01:29:33;8.80;;;6.00;;
8540;SDS011;4308;51.294;6.590;2023-08-31T01:32:04;8.47;;;5.67;;
8540;SDS011;4308;51.294;6.590;2023-08-31T01:34:32;10.07;;;5.90;;
8540;SDS011;4308;51.294;6.590;2023-08-31T01:37:00;8.27;;;5.60;;
8540;SDS011;4308;51.294;6.590;2023-08-31T01:39:33;8.27;;;5.53;;
8540;SDS011;4308;51.294;6.590;2023-08-31T01:42:03;10.07;;;6.03;;
8540;SDS011;4308;51.294;6.590;2023-08-31T01:44:32;7.53;;;5.80;;
8540;SDS011;4308;51.294;6.590;2023-08-31T01:47:04;8.83;;;5.63;;
8540;SDS011;4308;51.294;6.590;2023-08-31T01:49:35;6.93;;;5.20;;
8540;SDS011;4308;51.294;6.590;2023-08-31T01:52:03;7.20;;;5.57;;
8540;SDS011;4308;51.294;6.590;2023-08-31T01:54:31;8.97;;;5.17;;
8540;SDS011;4308;51.294;6.590;2023-08-31T01:56:59;8.07;;;5.10;;
8540;SDS011;4308;51.294;6.590;2023-08-31T01:59:26;9.37;;;4.83;;
8540;SDS011;4308;51.294;6.590;2023-08-31T02:01:54;9.23;;;4.87;;
8540;SDS011;4308;51.294;6.590;2023-08-31T02:04:22;6.83;;;4.97;;
8540;SDS011;4308;51.294;6.590;2023-08-31T02:06:49;8.90;;;4.67;;
8540;SDS011;4308;51.294;6.590;2023-08-31T02:09:17;5.23;;;4.73;;
8540;SDS011;4308;51.294;6.590;2023-08-31T02:11:44;6.80;;;4.50;;
8540;SDS011;4308;51.294;6.590;2023-08-31T02:14:14;9.60;;;4.80;;
8540;SDS011;4308;51.294;6.590;2023-08-31T02:16:41;7.60;;;4.70;;
8540;SDS011;4308;51.294;6.590;2023-08-31T02:19:09;6.37;;;4.40;;
8540;SDS011;4308;51.294;6.590;2023-08-31T02:21:37;5.90;;;4.70;;
8540;SDS011;4308;51.294;6.590;2023-08-31T02:24:05;8.33;;;5.13;;
8540;SDS011;4308;51.294;6.590;2023-08-31T02:26:34;8.33;;;5.20;;
8540;SDS011;4308;51.294;6.590;2023-08-31T02:29:02;5.47;;;4.90;;
8540;SDS011;4308;51.294;6.590;2023-08-31T02:31:30;8.40;;;5.00;;
8540;SDS011;4308;51.294;6.590;2023-08-31T02:33:57;7.50;;;5.30;;
8540;SDS011;4308;51.294;6.590;2023-08-31T02:36:25;5.23;;;4.63;;
8540;SDS011;4308;51.294;6.590;2023-08-31T02:38:53;7.20;;;4.90;;
8540;SDS011;4308;51.294;6.590;2023-08-31T02:41:20;6.40;;;4.23;;
8540;SDS011;4308;51.294;6.590;2023-08-31T02:43:52;6.77;;;4.77;;
8540;SDS011;4308;51.294;6.590;2023-08-31T02:46:19;7.10;;;4.30;;
8540;SDS011;4308;51.294;6.590;2023-08-31T02:48:47;5.07;;;4.37;;
8540;SDS011;4308;51.294;6.590;2023-08-31T02:51:15;6.37;;;4.40;;
8540;SDS011;4308;51.294;6.590;2023-08-31T02:53:42;5.73;;;4.53;;
8540;SDS011;4308;51.294;6.590;2023-08-31T02:56:10;5.33;;;4.57;;
8540;SDS011;4308;51.294;6.590;2023-08-31T02:58:38;6.90;;;4.40;;
8540;SDS011;4308;51.294;6.590;2023-08-31T03:01:07;5.77;;;3.80;;
8540;SDS011;4308;51.294;6.590;2023-08-31T03:03:35;10.83;;;4.40;;
8540;SDS011;4308;51.294;6.590;2023-08-31T03:06:02;5.37;;;4.03;;
8540;SDS011;4308;51.294;6.590;2023-08-31T03:08:30;5.37;;;4.50;;
8540;SDS011;4308;51.294;6.590;2023-08-31T03:10:57;4.27;;;3.87;;
8540;SDS011;4308;51.294;6.590;2023-08-31T03:13:25;6.73;;;3.97;;
8540;SDS011;4308;51.294;6.590;2023-08-31T03:15:54;6.83;;;4.70;;
8540;SDS011;4308;51.294;6.590;2023-08-31T03:18:22;6.27;;;4.33;;
8540;SDS011;4308;51.294;6.590;2023-08-31T03:20:50;5.53;;;4.20;;
8540;SDS011;4308;51.294;6.590;2023-08-31T03:23:17;5.87;;;4.07;;
8540;SDS011;4308;51.294;6.590;2023-08-31T03:25:45;7.33;;;4.33;;
8540;SDS011;4308;51.294;6.590;2023-08-31T03:28:13;7.53;;;4.13;;
8540;SDS011;4308;51.294;6.590;2023-08-31T03:30:40;5.47;;;4.30;;
8540;SDS011;4308;51.294;6.590;2023-08-31T03:33:08;6.70;;;4.27;;
8540;SDS011;4308;51.294;6.590;2023-08-31T03:35:36;5.80;;;4.97;;
8540;SDS011;4308;51.294;6.590;2023-08-31T03:38:04;5.93;;;4.50;;
8540;SDS011;4308;51.294;6.590;2023-08-31T03:40:31;7.13;;;4.30;;
8540;SDS011;4308;51.294;6.590;2023-08-31T03:42:59;7.30;;;4.97;;
8540;SDS011;4308;51.294;6.590;2023-08-31T03:45:27;5.37;;;4.10;;
8540;SDS011;4308;51.294;6.590;2023-08-31T03:47:54;6.50;;;4.60;;
8540;SDS011;4308;51.294;6.590;2023-08-31T03:50:22;7.57;;;5.10;;
8540;SDS011;4308;51.294;6.590;2023-08-31T03:52:49;6.93;;;5.07;;
8540;SDS011;4308;51.294;6.590;2023-08-31T03:55:17;7.33;;;4.60;;
8540;SDS011;4308;51.294;6.590;2023-08-31T03:57:44;6.70;;;5.17;;
8540;SDS011;4308;51.294;6.590;2023-08-31T04:00:14;8.63;;;5.10;;
8540;SDS011;4308;51.294;6.590;2023-08-31T04:02:42;7.30;;;5.53;;
8540;SDS011;4308;51.294;6.590;2023-08-31T04:05:10;9.13;;;5.80;;
8540;SDS011;4308;51.294;6.590;2023-08-31T04:07:38;7.00;;;5.80;;
8540;SDS011;4308;51.294;6.590;2023-08-31T04:10:05;6.43;;;5.27;;
8540;SDS011;4308;51.294;6.590;2023-08-31T04:12:33;8.33;;;6.40;;
8540;SDS011;4308;51.294;6.590;2023-08-31T04:15:01;9.17;;;5.93;;
8540;SDS011;4308;51.294;6.590;2023-08-31T04:17:31;7.97;;;6.63;;
8540;SDS011;4308;51.294;6.590;2023-08-31T04:19:58;9.37;;;6.33;;
8540;SDS011;4308;51.294;6.590;2023-08-31T04:22:26;9.03;;;5.87;;
8540;SDS011;4308;51.294;6.590;2023-08-31T04:24:53;10.10;;;6.97;;
8540;SDS011;4308;51.294;6.590;2023-08-31T04:27:21;10.47;;;6.00;;
8540;SDS011;4308;51.294;6.590;2023-08-31T04:29:49;10.43;;;5.80;;
8540;SDS011;4308;51.294;6.590;2023-08-31T04:32:16;9.40;;;6.10;;
8540;SDS011;4308;51.294;6.590;2023-08-31T04:34:44;8.93;;;6.23;;
8540;SDS011;4308;51.294;6.590;2023-08-31T04:37:11;7.40;;;6.27;;
8540;SDS011;4308;51.294;6.590;2023-08-31T04:39:39;8.60;;;5.63;;
8540;SDS011;4308;51.294;6.590;2023-08-31T04:42:07;8.47;;;6.00;;
8540;SDS011;4308;51.294;6.590;2023-08-31T04:44:34;10.53;;;6.40;;
8540;SDS011;4308;51.294;6.590;2023-08-31T04:47:02;8.13;;;6.20;;
8540;SDS011;4308;51.294;6.590;2023-08-31T04:49:29;10.70;;;6.87;;
8540;SDS011;4308;51.294;6.590;2023-08-31T04:51:57;12.23;;;7.00;;
8540;SDS011;4308;51.294;6.590;2023-08-31T04:54:25;11.33;;;6.80;;
8540;SDS011;4308;51.294;6.590;2023-08-31T04:56:54;7.70;;;6.70;;
8540;SDS011;4308;51.294;6.590;2023-08-31T04:59:22;8.20;;;7.07;;
8540;SDS011;4308;51.294;6.590;2023-08-31T05:01:50;11.57;;;8.03;;
8540;SDS011;4308;51.294;6.590;2023-08-31T05:04:17;7.80;;;7.00;;
8540;SDS011;4308;51.294;6.590;2023-08-31T05:06:45;13.83;;;7.30;;
8540;SDS011;4308;51.294;6.590;2023-08-31T05:09:13;10.20;;;7.50;;
8540;SDS011;4308;51.294;6.590;2023-08-31T05:11:40;9.30;;;7.27;;
8540;SDS011;4308;51.294;6.590;2023-08-31T05:14:08;10.37;;;7.60;;
8540;SDS011;4308;51.294;6.590;2023-08-31T05:16:35;13.60;;;7.47;;
8540;SDS011;4308;51.294;6.590;2023-08-31T05:19:03;8.83;;;7.77;;
8540;SDS011;4308;51.294;6.590;2023-08-31T05:21:31;11.17;;;7.87;;
8540;SDS011;4308;51.294;6.590;2023-08-31T05:23:58;12.23;;;7.87;;
8540;SDS011;4308;51.294;6.590;2023-08-31T05:26:26;9.70;;;7.80;;
8540;SDS011;4308;51.294;6.590;2023-08-31T05:28:54;8.47;;;7.20;;
8540;SDS011;4308;51.294;6.590;2023-08-31T05:31:21;9.83;;;7.67;;
8540;SDS011;4308;51.294;6.590;2023-08-31T05:33:49;11.20;;;6.90;;
8540;SDS011;4308;51.294;6.590;2023-08-31T05:36:16;11.27;;;7.23;;
8540;SDS011;4308;51.294;6.590;2023-08-31T05:38:44;8.30;;;7.03;;
8540;SDS011;4308;51.294;6.590;2023-08-31T05:41:12;6.80;;;5.43;;
8540;SDS011;4308;51.294;6.590;2023-08-31T05:43:39;6.00;;;5.40;;
8540;SDS011;4308;51.294;6.590;2023-08-31T05:46:07;5.83;;;4.40;;
8540;SDS011;4308;51.294;6.590;2023-08-31T05:48:36;5.60;;;5.10;;
8540;SDS011;4308;51.294;6.590;2023-08-31T05:51:04;7.03;;;4.63;;
8540;SDS011;4308;51.294;6.590;2023-08-31T05:53:31;4.90;;;4.33;;
8540;SDS011;4308;51.294;6.590;2023-08-31T05:55:59;5.43;;;4.13;;
8540;SDS011;4308;51.294;6.590;2023-08-31T05:58:27;6.23;;;4.13;;
8540;SDS011;4308;51.294;6.590;2023-08-31T06:00:54;7.20;;;4.73;;
8540;SDS011;4308;51.294;6.590;2023-08-31T06:03:22;5.87;;;4.23;;
8540;SDS011;4308;51.294;6.590;2023-08-31T06:05:50;5.53;;;3.93;;
8540;SDS011;4308;51.294;6.590;2023-08-31T06:08:17;9.17;;;4.53;;
8540;SDS011;4308;51.294;6.590;2023-08-31T06:10:45;6.97;;;4.13;;
8540;SDS011;4308;51.294;6.590;2023-08-31T06:13:13;8.23;;;4.40;;
8540;SDS011;4308;51.294;6.590;2023-08-31T06:15:40;5.50;;;4.63;;
8540;SDS011;4308;51.294;6.590;2023-08-31T06:18:08;6.23;;;4.60;;
8540;SDS011;4308;51.294;6.590;2023-08-31T06:20:36;6.53;;;5.40;;
8540;SDS011;4308;51.294;6.590;2023-08-31T06:23:03;6.63;;;4.77;;
8540;SDS011;4308;51.294;6.590;2023-08-31T06:25:31;8.07;;;5.63;;
8540;SDS011;4308;51.294;6.590;2023-08-31T06:27:59;7.07;;;5.03;;
8540;SDS011;4308;51.294;6.590;2023-08-31T06:30:26;7.80;;;5.37;;
8540;SDS011;4308;51.294;6.590;2023-08-31T06:32:54;8.40;;;5.73;;
8540;SDS011;4308;51.294;6.590;2023-08-31T06:35:22;11.10;;;5.70;;
8540;SDS011;4308;51.294;6.590;2023-08-31T06:37:49;8.20;;;5.60;;
8540;SDS011;4308;51.294;6.590;2023-08-31T06:40:17;12.33;;;6.27;;
8540;SDS011;4308;51.294;6.590;2023-08-31T06:42:44;8.27;;;5.77;;
8540;SDS011;4308;51.294;6.590;2023-08-31T06:45:12;9.37;;;5.33;;
8540;SDS011;4308;51.294;6.590;2023-08-31T06:47:39;8.73;;;5.07;;
8540;SDS011;4308;51.294;6.590;2023-08-31T06:50:07;7.63;;;5.63;;
8540;SDS011;4308;51.294;6.590;2023-08-31T06:52:35;8.37;;;5.90;;
8540;SDS011;4308;51.294;6.590;2023-08-31T06:55:03;8.00;;;5.53;;
8540;SDS011;4308;51.294;6.590;2023-08-31T06:57:31;11.07;;;5.30;;
8540;SDS011;4308;51.294;6.590;2023-08-31T06:59:58;10.60;;;5.13;;
8540;SDS011;4308;51.294;6.590;2023-08-31T07:02:26;5.37;;;4.53;;
8540;SDS011;4308;51.294;6.590;2023-08-31T07:04:55;5.70;;;4.97;;
8540;SDS011;4308;51.294;6.590;2023-08-31T07:07:23;7.60;;;4.80;;
8540;SDS011;4308;51.294;6.590;2023-08-31T07:09:50;6.07;;;4.97;;
8540;SDS011;4308;51.294;6.590;2023-08-31T07:12:18;6.80;;;5.13;;
8540;SDS011;4308;51.294;6.590;2023-08-31T07:14:45;7.00;;;4.57;;
8540;SDS011;4308;51.294;6.590;2023-08-31T07:17:13;5.20;;;4.43;;
8540;SDS011;4308;51.294;6.590;2023-08-31T07:19:45;7.53;;;4.70;;
8540;SDS011;4308;51.294;6.590;2023-08-31T07:22:12;5.30;;;4.40;;
8540;SDS011;4308;51.294;6.590;2023-08-31T07:24:40;11.10;;;4.80;;
8540;SDS011;4308;51.294;6.590;2023-08-31T07:27:08;5.10;;;4.33;;
8540;SDS011;4308;51.294;6.590;2023-08-31T07:29:35;6.70;;;4.27;;
8540;SDS011;4308;51.294;6.590;2023-08-31T07:32:03;6.27;;;4.30;;
8540;SDS011;4308;51.294;6.590;2023-08-31T07:34:30;5.20;;;3.77;;
8540;SDS011;4308;51.294;6.590;2023-08-31T07:36:59;5.87;;;4.03;;
8540;SDS011;4308;51.294;6.590;2023-08-31T07:39:27;5.93;;;4.30;;
8540;SDS011;4308;51.294;6.590;2023-08-31T07:41:54;7.37;;;4.40;;
8540;SDS011;4308;51.294;6.590;2023-08-31T07:44:23;7.07;;;4.70;;
8540;SDS011;4308;51.294;6.590;2023-08-31T07:46:50;8.00;;;4.27;;
8540;SDS011;4308;51.294;6.590;2023-08-31T07:49:18;7.20;;;4.50;;
8540;SDS011;4308;51.294;6.590;2023-08-31T07:51:46;5.70;;;4.20;;
8540;SDS011;4308;51.294;6.590;2023-08-31T07:54:22;6.70;;;3.90;;
8540;SDS011;4308;51.294;6.590;2023-08-31T07:56:50;6.53;;;4.30;;
8540;SDS011;4308;51.294;6.590;2023-08-31T07:59:17;5.93;;;4.30;;
8540;SDS011;4308;51.294;6.590;2023-08-31T08:01:46;5.43;;;4.40;;
8540;SDS011;4308;51.294;6.590;2023-08-31T08:04:13;7.90;;;4.37;;
8540;SDS011;4308;51.294;6.590;2023-08-31T08:06:41;7.40;;;3.70;;
8540;SDS011;4308;51.294;6.590;2023-08-31T08:09:09;4.70;;;3.90;;
8540;SDS011;4308;51.294;6.590;2023-08-31T08:11:36;6.77;;;4.10;;
8540;SDS011;4308;51.294;6.590;2023-08-31T08:14:04;6.00;;;3.60;;
8540;SDS011;4308;51.294;6.590;2023-08-31T08:16:31;7.60;;;4.40;;
8540;SDS011;4308;51.294;6.590;2023-08-31T08:18:59;5.63;;;3.43;;
8540;SDS011;4308;51.294;6.590;2023-08-31T08:21:27;5.63;;;3.53;;
8540;SDS011;4308;51.294;6.590;2023-08-31T08:23:54;5.63;;;4.20;;
8540;SDS011;4308;51.294;6.590;2023-08-31T08:26:22;7.27;;;3.73;;
8540;SDS011;4308;51.294;6.590;2023-08-31T08:28:50;6.83;;;4.30;;
8540;SDS011;4308;51.294;6.590;2023-08-31T08:31:17;5.20;;;3.50;;
8540;SDS011;4308;51.294;6.590;2023-08-31T08:33:45;8.17;;;3.80;;
8540;SDS011;4308;51.294;6.590;2023-08-31T08:36:12;6.17;;;3.60;;
8540;SDS011;4308;51.294;6.590;2023-08-31T08:38:40;5.87;;;3.27;;
8540;SDS011;4308;51.294;6.590;2023-08-31T08:41:08;4.73;;;3.20;;
8540;SDS011;4308;51.294;6.590;2023-08-31T08:43:35;6.33;;;3.70;;
8540;SDS011;4308;51.294;6.590;2023-08-31T08:46:05;9.17;;;3.67;;
8540;SDS011;4308;51.294;6.590;2023-08-31T08:48:35;6.87;;;3.73;;
8540;SDS011;4308;51.294;6.590;2023-08-31T08:51:03;5.33;;;3.03;;
8540;SDS011;4308;51.294;6.590;2023-08-31T08:53:31;4.43;;;2.90;;
8540;SDS011;4308;51.294;6.590;2023-08-31T08:55:59;3.47;;;2.37;;
8540;SDS011;4308;51.294;6.590;2023-08-31T08:58:26;9.07;;;3.37;;
8540;SDS011;4308;51.294;6.590;2023-08-31T09:00:54;6.77;;;3.30;;
8540;SDS011;4308;51.294;6.590;2023-08-31T09:03:23;4.70;;;2.70;;
8540;SDS011;4308;51.294;6.590;2023-08-31T09:05:50;5.73;;;2.70;;
8540;SDS011;4308;51.294;6.590;2023-08-31T09:08:20;8.03;;;2.57;;
8540;SDS011;4308;51.294;6.590;2023-08-31T09:10:54;5.40;;;2.67;;
8540;SDS011;4308;51.294;6.590;2023-08-31T09:13:23;4.83;;;2.80;;
8540;SDS011;4308;51.294;6.590;2023-08-31T09:15:53;7.40;;;2.70;;
8540;SDS011;4308;51.294;6.590;2023-08-31T09:20:51;5.70;;;2.80;;
8540;SDS011;4308;51.294;6.590;2023-08-31T09:23:19;5.13;;;2.40;;
8540;SDS011;4308;51.294;6.590;2023-08-31T09:25:48;3.73;;;2.47;;
8540;SDS011;4308;51.294;6.590;2023-08-31T09:28:16;6.90;;;2.77;;
8540;SDS011;4308;51.294;6.590;2023-08-31T09:30:48;2.77;;;2.50;;
8540;SDS011;4308;51.294;6.590;2023-08-31T09:33:17;5.90;;;2.60;;
8540;SDS011;4308;51.294;6.590;2023-08-31T09:35:56;7.37;;;2.80;;
8540;SDS011;4308;51.294;6.590;2023-08-31T09:38:23;5.33;;;2.97;;
8540;SDS011;4308;51.294;6.590;2023-08-31T09:40:51;3.40;;;2.13;;
8540;SDS011;4308;51.294;6.590;2023-08-31T09:43:28;5.83;;;2.57;;
8540;SDS011;4308;51.294;6.590;2023-08-31T09:45:55;8.00;;;3.00;;
8540;SDS011;4308;51.294;6.590;2023-08-31T09:48:23;6.47;;;2.70;;
8540;SDS011;4308;51.294;6.590;2023-08-31T09:50:51;5.40;;;2.40;;
8540;SDS011;4308;51.294;6.590;2023-08-31T09:53:19;5.77;;;2.37;;
8540;SDS011;4308;51.294;6.590;2023-08-31T09:55:47;3.87;;;2.70;;
8540;SDS011;4308;51.294;6.590;2023-08-31T09:58:17;3.73;;;2.37;;
8540;SDS011;4308;51.294;6.590;2023-08-31T10:00:45;6.93;;;2.70;;
8540;SDS011;4308;51.294;6.590;2023-08-31T10:03:13;8.83;;;3.13;;
8540;SDS011;4308;51.294;6.590;2023-08-31T10:05:48;5.23;;;2.60;;
8540;SDS011;4308;51.294;6.590;2023-08-31T10:08:17;7.43;;;3.00;;
8540;SDS011;4308;51.294;6.590;2023-08-31T10:10:45;5.53;;;2.70;;
8540;SDS011;4308;51.294;6.590;2023-08-31T10:13:13;7.23;;;3.10;;
8540;SDS011;4308;51.294;6.590;2023-08-31T10:15:43;4.33;;;2.63;;
8540;SDS011;4308;51.294;6.590;2023-08-31T10:18:10;4.70;;;2.70;;
8540;SDS011;4308;51.294;6.590;2023-08-31T10:20:39;5.30;;;2.60;;
8540;SDS011;4308;51.294;6.590;2023-08-31T10:23:09;4.63;;;2.50;;
8540;SDS011;4308;51.294;6.590;2023-08-31T10:28:18;4.93;;;2.97;;
8540;SDS011;4308;51.294;6.590;2023-08-31T10:31:05;9.20;;;2.83;;
8540;SDS011;4308;51.294;6.590;2023-08-31T10:36:11;5.53;;;2.73;;
8540;SDS011;4308;51.294;6.590;2023-08-31T10:38:39;4.70;;;2.70;;
8540;SDS011;4308;51.294;6.590;2023-08-31T10:51:29;5.27;;;2.77;;
8540;SDS011;4308;51.294;6.590;2023-08-31T10:54:04;5.60;;;2.47;;
8540;SDS011;4308;51.294;6.590;2023-08-31T10:56:32;6.50;;;2.67;;
8540;SDS011;4308;51.294;6.590;2023-08-31T10:59:00;7.77;;;2.87;;
8540;SDS011;4308;51.294;6.590;2023-08-31T11:04:15;5.27;;;2.47;;
8540;SDS011;4308;51.294;6.590;2023-08-31T11:06:43;4.57;;;1.90;;
8540;SDS011;4308;51.294;6.590;2023-08-31T11:09:20;5.33;;;2.67;;
8540;SDS011;4308;51.294;6.590;2023-08-31T11:11:54;6.50;;;2.43;;
8540;SDS011;4308;51.294;6.590;2023-08-31T11:14:27;5.43;;;2.50;;
8540;SDS011;4308;51.294;6.590;2023-08-31T11:16:55;4.17;;;2.33;;
8540;SDS011;4308;51.294;6.590;2023-08-31T11:19:23;6.20;;;2.57;;
8540;SDS011;4308;51.294;6.590;2023-08-31T11:21:50;5.10;;;2.43;;
8540;SDS011;4308;51.294;6.590;2023-08-31T11:24:18;3.30;;;2.07;;
8540;SDS011;4308;51.294;6.590;2023-08-31T11:26:47;3.80;;;2.37;;
8540;SDS011;4308;51.294;6.590;2023-08-31T11:29:15;4.50;;;2.50;;
8540;SDS011;4308;51.294;6.590;2023-08-31T11:31:42;5.27;;;2.47;;
8540;SDS011;4308;51.294;6.590;2023-08-31T11:34:14;7.97;;;2.60;;
8540;SDS011;4308;51.294;6.590;2023-08-31T11:36:42;5.10;;;2.50;;
8540;SDS011;4308;51.294;6.590;2023-08-31T11:39:10;6.90;;;2.83;;
8540;SDS011;4308;51.294;6.590;2023-08-31T11:41:37;7.20;;;2.60;;
8540;SDS011;4308;51.294;6.590;2023-08-31T11:44:05;6.13;;;2.50;;
8540;SDS011;4308;51.294;6.590;2023-08-31T11:46:33;5.53;;;2.93;;
8540;SDS011;4308;51.294;6.590;2023-08-31T11:49:01;7.07;;;3.33;;
8540;SDS011;4308;51.294;6.590;2023-08-31T11:51:28;8.30;;;2.83;;
8540;SDS011;4308;51.294;6.590;2023-08-31T11:53:56;6.03;;;2.90;;
8540;SDS011;4308;51.294;6.590;2023-08-31T11:56:24;5.63;;;2.83;;
8540;SDS011;4308;51.294;6.590;2023-08-31T11:58:51;4.13;;;2.40;;
8540;SDS011;4308;51.294;6.590;2023-08-31T12:01:31;5.60;;;3.30;;
8540;SDS011;4308;51.294;6.590;2023-08-31T12:03:58;6.53;;;3.00;;
8540;SDS011;4308;51.294;6.590;2023-08-31T12:06:26;8.43;;;3.10;;
8540;SDS011;4308;51.294;6.590;2023-08-31T12:08:56;9.60;;;3.30;;
8540;SDS011;4308;51.294;6.590;2023-08-31T12:11:24;5.83;;;3.20;;
8540;SDS011;4308;51.294;6.590;2023-08-31T12:13:52;8.53;;;3.17;;
8540;SDS011;4308;51.294;6.590;2023-08-31T12:16:19;6.60;;;2.80;;
8540;SDS011;4308;51.294;6.590;2023-08-31T12:18:47;6.40;;;3.00;;
8540;SDS011;4308;51.294;6.590;2023-08-31T12:21:15;6.03;;;3.00;;
8540;SDS011;4308;51.294;6.590;2023-08-31T12:23:42;5.77;;;2.70;;
8540;SDS011;4308;51.294;6.590;2023-08-31T12:26:10;4.73;;;3.03;;
8540;SDS011;4308;51.294;6.590;2023-08-31T12:28:37;6.57;;;3.20;;
8540;SDS011;4308;51.294;6.590;2023-08-31T12:31:05;6.70;;;2.83;;
8540;SDS011;4308;51.294;6.590;2023-08-31T12:33:32;4.27;;;2.30;;
8540;SDS011;4308;51.294;6.590;2023-08-31T12:36:00;4.57;;;2.40;;
8540;SDS011;4308;51.294;6.590;2023-08-31T12:38:30;6.83;;;2.47;;
8540;SDS011;4308;51.294;6.590;2023-08-31T12:40:58;5.00;;;2.50;;
8540;SDS011;4308;51.294;6.590;2023-08-31T12:43:25;4.47;;;2.53;;
8540;SDS011;4308;51.294;6.590;2023-08-31T12:45:53;4.93;;;2.40;;
8540;SDS011;4308;51.294;6.590;2023-08-31T12:48:20;4.87;;;2.03;;
8540;SDS011;4308;51.294;6.590;2023-08-31T12:50:48;6.50;;;1.80;;
8540;SDS011;4308;51.294;6.590;2023-08-31T12:53:16;6.00;;;2.17;;
8540;SDS011;4308;51.294;6.590;2023-08-31T12:55:43;3.17;;;2.00;;
8540;SDS011;4308;51.294;6.590;2023-08-31T12:58:11;5.67;;;2.50;;
8540;SDS011;4308;51.294;6.590;2023-08-31T13:00:38;6.13;;;2.40;;
8540;SDS011;4308;51.294;6.590;2023-08-31T13:03:06;4.67;;;2.20;;
8540;SDS011;4308;51.294;6.590;2023-08-31T13:05:38;6.93;;;2.23;;
8540;SDS011;4308;51.294;6.590;2023-08-31T13:08:06;4.13;;;2.10;;
8540;SDS011;4308;51.294;6.590;2023-08-31T13:10:34;3.53;;;2.00;;
8540;SDS011;4308;51.294;6.590;2023-08-31T13:13:02;6.53;;;2.63;;
8540;SDS011;4308;51.294;6.590;2023-08-31T13:15:31;3.87;;;2.07;;
8540;SDS011;4308;51.294;6.590;2023-08-31T13:17:59;4.67;;;1.70;;
8540;SDS011;4308;51.294;6.590;2023-08-31T13:20:26;5.30;;;2.13;;
8540;SDS011;4308;51.294;6.590;2023-08-31T13:22:54;5.80;;;2.23;;
8540;SDS011;4308;51.294;6.590;2023-08-31T13:25:22;3.83;;;1.93;;
8540;SDS011;4308;51.294;6.590;2023-08-31T13:27:53;3.33;;;1.90;;
8540;SDS011;4308;51.294;6.590;2023-08-31T13:30:20;4.13;;;2.23;;
8540;SDS011;4308;51.294;6.590;2023-08-31T13:32:48;4.47;;;2.27;;
8540;SDS011;4308;51.294;6.590;2023-08-31T13:35:16;4.63;;;2.40;;
8540;SDS011;4308;51.294;6.590;2023-08-31T13:37:43;3.53;;;2.00;;
8540;SDS011;4308;51.294;6.590;2023-08-31T13:40:11;6.33;;;2.20;;
8540;SDS011;4308;51.294;6.590;2023-08-31T13:42:48;4.20;;;1.87;;
8540;SDS011;4308;51.294;6.590;2023-08-31T13:45:16;2.80;;;1.83;;
8540;SDS011;4308;51.294;6.590;2023-08-31T13:47:43;6.73;;;1.70;;
8540;SDS011;4308;51.294;6.590;2023-08-31T13:50:11;6.47;;;2.30;;
8540;SDS011;4308;51.294;6.590;2023-08-31T13:52:39;2.60;;;1.50;;
8540;SDS011;4308;51.294;6.590;2023-08-31T13:55:06;4.00;;;2.10;;
8540;SDS011;4308;51.294;6.590;2023-08-31T13:57:34;2.70;;;1.67;;
8540;SDS011;4308;51.294;6.590;2023-08-31T14:00:02;3.93;;;1.90;;
8540;SDS011;4308;51.294;6.590;2023-08-31T14:02:30;8.47;;;1.97;;
8540;SDS011;4308;51.294;6.590;2023-08-31T14:04:58;3.80;;;1.90;;
8540;SDS011;4308;51.294;6.590;2023-08-31T14:07:25;3.33;;;1.87;;
8540;SDS011;4308;51.294;6.590;2023-08-31T14:09:53;3.27;;;1.90;;
8540;SDS011;4308;51.294;6.590;2023-08-31T14:12:21;3.73;;;1.73;;
8540;SDS011;4308;51.294;6.590;2023-08-31T14:14:48;3.40;;;1.50;;
8540;SDS011;4308;51.294;6.590;2023-08-31T14:17:16;5.93;;;2.00;;
8540;SDS011;4308;51.294;6.590;2023-08-31T14:19:43;3.73;;;1.67;;
8540;SDS011;4308;51.294;6.590;2023-08-31T14:22:11;2.17;;;1.70;;
8540;SDS011;4308;51.294;6.590;2023-08-31T14:24:39;2.83;;;1.90;;
8540;SDS011;4308;51.294;6.590;2023-08-31T14:27:06;4.53;;;1.80;;
8540;SDS011;4308;51.294;6.590;2023-08-31T14:29:34;5.37;;;1.70;;
8540;SDS011;4308;51.294;6.590;2023-08-31T14:32:04;3.23;;;2.07;;
8540;SDS011;4308;51.294;6.590;2023-08-31T14:34:31;3.60;;;1.43;;
8540;SDS011;4308;51.294;6.590;2023-08-31T14:36:59;4.37;;;2.50;;
8540;SDS011;4308;51.294;6.590;2023-08-31T14:39:26;4.60;;;2.73;;
8540;SDS011;4308;51.294;6.590;2023-08-31T14:41:55;4.70;;;2.90;;
8540;SDS011;4308;51.294;6.590;2023-08-31T14:44:23;7.33;;;3.10;;
8540;SDS011;4308;51.294;6.590;2023-08-31T14:46:51;3.97;;;2.33;;
8540;SDS011;4308;51.294;6.590;2023-08-31T14:49:21;6.80;;;3.20;;
8540;SDS011;4308;51.294;6.590;2023-08-31T14:51:49;6.50;;;2.73;;
8540;SDS011;4308;51.294;6.590;2023-08-31T14:54:17;4.87;;;2.90;;
8540;SDS011;4308;51.294;6.590;2023-08-31T14:56:44;5.77;;;3.10;;
8540;SDS011;4308;51.294;6.590;2023-08-31T14:59:13;4.37;;;2.73;;
8540;SDS011;4308;51.294;6.590;2023-08-31T15:01:41;3.77;;;2.53;;
8540;SDS011;4308;51.294;6.590;2023-08-31T15:04:08;4.07;;;3.13;;
8540;SDS011;4308;51.294;6.590;2023-08-31T15:06:36;4.60;;;2.70;;
8540;SDS011;4308;51.294;6.590;2023-08-31T15:09:04;4.67;;;2.60;;
8540;SDS011;4308;51.294;6.590;2023-08-31T15:11:31;3.90;;;2.87;;
8540;SDS011;4308;51.294;6.590;2023-08-31T15:13:59;7.73;;;3.40;;
8540;SDS011;4308;51.294;6.590;2023-08-31T15:16:27;4.93;;;3.03;;
8540;SDS011;4308;51.294;6.590;2023-08-31T15:18:54;4.03;;;3.07;;
8540;SDS011;4308;51.294;6.590;2023-08-31T15:21:22;3.73;;;2.83;;
8540;SDS011;4308;51.294;6.590;2023-08-31T15:23:50;6.30;;;3.17;;
8540;SDS011;4308;51.294;6.590;2023-08-31T15:26:17;6.77;;;3.40;;
8540;SDS011;4308;51.294;6.590;2023-08-31T15:28:45;3.87;;;2.90;;
8540;SDS011;4308;51.294;6.590;2023-08-31T15:31:13;4.03;;;3.40;;
8540;SDS011;4308;51.294;6.590;2023-08-31T15:33:41;5.23;;;2.90;;
8540;SDS011;4308;51.294;6.590;2023-08-31T15:36:09;6.00;;;2.77;;
8540;SDS011;4308;51.294;6.590;2023-08-31T15:38:37;6.13;;;3.10;;
8540;SDS011;4308;51.294;6.590;2023-08-31T15:41:06;9.33;;;3.37;;
8540;SDS011;4308;51.294;6.590;2023-08-31T15:43:34;19.03;;;5.40;;
8540;SDS011;4308;51.294;6.590;2023-08-31T15:46:03;8.10;;;5.40;;
8540;SDS011;4308;51.294;6.590;2023-08-31T15:48:30;14.10;;;9.00;;
8540;SDS011;4308;51.294;6.590;2023-08-31T15:50:58;8.43;;;5.90;;